Weaver, AL (36277)

2:43 AM CDT on May 26, 2015 (GMT -0500)
saks | | Change Station
CLOSE
Current Station
Personal Weather Station
Location: Anniston, AL
Elevation: 692 ft
Nearby Weather Stations

Elev 692 ft 33.72 °N, 85.86 °W | Updated 12 minutes ago

Mostly Cloudy
Mostly Cloudy
69.6 °F
Feels Like 69.6 °F
N
4.2
Wind Variable Wind from SSE

Today
High -- | Low -- °F
--% Chance of Precip.
Yesterday
High -- | Low -- °F
Precip. -- in
5:36 AM 7:44 PM
First Quarter, 56% visible
Pressure 30.15 in
Visibility 10.0 miles
Clouds Mostly Cloudy 1300 ft
Dew Point 68 °F
Humidity 94%
Rainfall 0.00 in
Snow Depth Not available.
UV 0 out of 12
Pollen 2.20 out of 12
Air Quality Not available.
Flu Activity Sporadic
SPECI KANB 260715Z AUTO 05006KT 10SM BKN013 20/18 A3015 RMK AO2 T02000178

More Conditions Fewer Conditions

Pressure 30.15 in
Visibility 10.0 miles
Clouds Mostly Cloudy 1300 ft
Dew Point 68 °F
Humidity 94%
Rainfall 0.00 in
Snow Depth Not available.
UV 0 out of 12
Pollen 2.20 out of 12
Air Quality Not available.
Flu Activity Sporadic
SPECI KANB 260715Z AUTO 05006KT 10SM BKN013 20/18 A3015 RMK AO2 T02000178

More Conditions Fewer Conditions

10-Day Weather Forecast

Almanac

Astronomy

May. 26, 2015 Rise Set
Actual Time
Civil Twilight
Nautical Twilight
Astronomical Twilight
Moon
Length of Visible Light
Length of Day
Tomorrow will be .
, % of the Moon is Illuminated

Today's Extremes

State Highs State Lows

Community

WunderPhotos

Upload Photos

1,824,302 photos uploaded!

WunderBlogs® & News

Nearby

Air Quality

  Air Quality AQ Index Pollutant
Not available.

Snow Depth

Station Depth Elevation

Earthquake Activity

City Distance Mag. Time & Date
Minimum magnitude displayed is 2.5.

Coastal Water Temperatures

Place Temperature

Stations

Nearby Weather Stations

Station Location Temp. Windchill Dew Point Humidity Wind Precip. Elev Updated Type